sensor_id;sensor_type;location;lat;lon;timestamp;P1;durP1;ratioP1;P2;durP2;ratioP2
11839;SDS011;5979;50.800;4.904;2022-11-06T00:00:56;5.82;;;3.38;;
11839;SDS011;5979;50.800;4.904;2022-11-06T00:03:22;4.72;;;2.50;;
11839;SDS011;5979;50.800;4.904;2022-11-06T00:05:48;4.72;;;2.92;;
11839;SDS011;5979;50.800;4.904;2022-11-06T00:08:36;4.90;;;2.67;;
11839;SDS011;5979;50.800;4.904;2022-11-06T00:11:08;5.22;;;2.72;;
11839;SDS011;5979;50.800;4.904;2022-11-06T00:13:39;6.30;;;3.20;;
11839;SDS011;5979;50.800;4.904;2022-11-06T00:16:06;4.15;;;2.80;;
11839;SDS011;5979;50.800;4.904;2022-11-06T00:18:33;4.88;;;2.50;;
11839;SDS011;5979;50.800;4.904;2022-11-06T00:21:10;3.88;;;2.13;;
11839;SDS011;5979;50.800;4.904;2022-11-06T00:23:38;6.47;;;2.85;;
11839;SDS011;5979;50.800;4.904;2022-11-06T00:26:05;3.92;;;2.60;;
11839;SDS011;5979;50.800;4.904;2022-11-06T00:28:33;5.80;;;2.63;;
11839;SDS011;5979;50.800;4.904;2022-11-06T00:31:00;3.53;;;2.55;;
11839;SDS011;5979;50.800;4.904;2022-11-06T00:33:30;4.03;;;2.42;;
11839;SDS011;5979;50.800;4.904;2022-11-06T00:35:56;6.65;;;2.45;;
11839;SDS011;5979;50.800;4.904;2022-11-06T00:38:22;5.00;;;2.63;;
11839;SDS011;5979;50.800;4.904;2022-11-06T00:40:48;4.65;;;2.97;;
11839;SDS011;5979;50.800;4.904;2022-11-06T00:43:13;4.40;;;2.58;;
11839;SDS011;5979;50.800;4.904;2022-11-06T00:45:39;5.13;;;2.72;;
11839;SDS011;5979;50.800;4.904;2022-11-06T00:48:05;5.82;;;2.83;;
11839;SDS011;5979;50.800;4.904;2022-11-06T00:50:31;4.95;;;3.13;;
11839;SDS011;5979;50.800;4.904;2022-11-06T00:52:57;4.97;;;2.55;;
11839;SDS011;5979;50.800;4.904;2022-11-06T00:55:23;5.35;;;2.55;;
11839;SDS011;5979;50.800;4.904;2022-11-06T00:57:48;5.15;;;2.95;;
11839;SDS011;5979;50.800;4.904;2022-11-06T01:00:15;8.65;;;2.92;;
11839;SDS011;5979;50.800;4.904;2022-11-06T01:02:42;5.07;;;2.70;;
11839;SDS011;5979;50.800;4.904;2022-11-06T01:05:09;5.93;;;3.00;;
11839;SDS011;5979;50.800;4.904;2022-11-06T01:07:36;3.55;;;2.40;;
11839;SDS011;5979;50.800;4.904;2022-11-06T01:10:02;3.90;;;2.28;;
11839;SDS011;5979;50.800;4.904;2022-11-06T01:12:32;7.68;;;2.80;;
11839;SDS011;5979;50.800;4.904;2022-11-06T01:14:58;5.93;;;2.97;;
11839;SDS011;5979;50.800;4.904;2022-11-06T01:17:24;5.63;;;2.70;;
11839;SDS011;5979;50.800;4.904;2022-11-06T01:19:50;5.13;;;2.38;;
11839;SDS011;5979;50.800;4.904;2022-11-06T01:22:15;5.00;;;2.65;;
11839;SDS011;5979;50.800;4.904;2022-11-06T01:24:41;7.65;;;2.40;;
11839;SDS011;5979;50.800;4.904;2022-11-06T01:27:07;3.58;;;2.50;;
11839;SDS011;5979;50.800;4.904;2022-11-06T01:29:33;6.30;;;2.70;;
11839;SDS011;5979;50.800;4.904;2022-11-06T01:31:59;4.55;;;2.78;;
11839;SDS011;5979;50.800;4.904;2022-11-06T01:34:25;4.97;;;2.83;;
11839;SDS011;5979;50.800;4.904;2022-11-06T01:36:50;4.82;;;2.60;;
11839;SDS011;5979;50.800;4.904;2022-11-06T01:39:16;10.35;;;2.95;;
11839;SDS011;5979;50.800;4.904;2022-11-06T01:41:46;7.38;;;2.50;;
11839;SDS011;5979;50.800;4.904;2022-11-06T01:46:58;3.65;;;2.35;;
11839;SDS011;5979;50.800;4.904;2022-11-06T01:49:26;4.88;;;2.50;;
11839;SDS011;5979;50.800;4.904;2022-11-06T01:51:56;7.05;;;2.72;;
11839;SDS011;5979;50.800;4.904;2022-11-06T01:54:29;5.72;;;3.15;;
11839;SDS011;5979;50.800;4.904;2022-11-06T01:56:57;3.58;;;2.80;;
11839;SDS011;5979;50.800;4.904;2022-11-06T01:59:26;9.50;;;3.10;;
11839;SDS011;5979;50.800;4.904;2022-11-06T02:01:54;6.43;;;2.78;;
11839;SDS011;5979;50.800;4.904;2022-11-06T02:04:21;4.53;;;2.67;;
11839;SDS011;5979;50.800;4.904;2022-11-06T02:06:49;4.88;;;2.75;;
11839;SDS011;5979;50.800;4.904;2022-11-06T02:09:15;4.00;;;2.90;;
11839;SDS011;5979;50.800;4.904;2022-11-06T02:11:43;5.82;;;3.22;;
11839;SDS011;5979;50.800;4.904;2022-11-06T02:14:22;5.25;;;2.90;;
11839;SDS011;5979;50.800;4.904;2022-11-06T02:27:43;6.65;;;3.05;;
11839;SDS011;5979;50.800;4.904;2022-11-06T02:30:12;6.90;;;3.22;;
11839;SDS011;5979;50.800;4.904;2022-11-06T02:32:47;6.00;;;3.05;;
11839;SDS011;5979;50.800;4.904;2022-11-06T02:38:21;5.47;;;3.17;;
11839;SDS011;5979;50.800;4.904;2022-11-06T02:41:15;6.57;;;3.53;;
11839;SDS011;5979;50.800;4.904;2022-11-06T02:43:48;4.85;;;3.00;;
11839;SDS011;5979;50.800;4.904;2022-11-06T02:46:18;5.18;;;2.80;;
11839;SDS011;5979;50.800;4.904;2022-11-06T02:48:55;3.15;;;2.70;;
11839;SDS011;5979;50.800;4.904;2022-11-06T02:51:25;3.80;;;3.33;;
11839;SDS011;5979;50.800;4.904;2022-11-06T02:53:55;2.80;;;2.60;;
11839;SDS011;5979;50.800;4.904;2022-11-06T02:56:26;5.90;;;2.47;;
11839;SDS011;5979;50.800;4.904;2022-11-06T03:01:26;4.72;;;2.85;;
11839;SDS011;5979;50.800;4.904;2022-11-06T03:03:56;3.85;;;2.78;;
11839;SDS011;5979;50.800;4.904;2022-11-06T03:06:27;4.95;;;3.10;;
11839;SDS011;5979;50.800;4.904;2022-11-06T03:09:02;5.03;;;2.78;;
11839;SDS011;5979;50.800;4.904;2022-11-06T03:11:32;4.30;;;2.95;;
11839;SDS011;5979;50.800;4.904;2022-11-06T03:21:52;2.88;;;2.60;;
11839;SDS011;5979;50.800;4.904;2022-11-06T03:24:30;6.72;;;3.50;;
11839;SDS011;5979;50.800;4.904;2022-11-06T03:27:06;4.35;;;3.13;;
11839;SDS011;5979;50.800;4.904;2022-11-06T03:29:42;6.78;;;2.85;;
11839;SDS011;5979;50.800;4.904;2022-11-06T03:32:31;3.72;;;2.70;;
11839;SDS011;5979;50.800;4.904;2022-11-06T03:35:11;5.63;;;2.90;;
11839;SDS011;5979;50.800;4.904;2022-11-06T03:38:00;5.60;;;2.88;;
11839;SDS011;5979;50.800;4.904;2022-11-06T03:40:32;5.10;;;2.95;;
11839;SDS011;5979;50.800;4.904;2022-11-06T03:43:02;3.55;;;3.17;;
11839;SDS011;5979;50.800;4.904;2022-11-06T03:45:31;3.63;;;2.70;;
11839;SDS011;5979;50.800;4.904;2022-11-06T03:48:06;8.27;;;2.70;;
11839;SDS011;5979;50.800;4.904;2022-11-06T03:50:41;6.75;;;2.70;;
11839;SDS011;5979;50.800;4.904;2022-11-06T03:53:22;3.05;;;2.63;;
11839;SDS011;5979;50.800;4.904;2022-11-06T03:55:54;3.75;;;2.78;;
11839;SDS011;5979;50.800;4.904;2022-11-06T03:58:43;4.47;;;3.10;;
11839;SDS011;5979;50.800;4.904;2022-11-06T04:01:11;6.22;;;2.92;;
11839;SDS011;5979;50.800;4.904;2022-11-06T04:03:44;5.68;;;2.78;;
11839;SDS011;5979;50.800;4.904;2022-11-06T04:06:20;2.83;;;2.58;;
11839;SDS011;5979;50.800;4.904;2022-11-06T04:08:50;6.22;;;2.97;;
11839;SDS011;5979;50.800;4.904;2022-11-06T04:11:37;5.43;;;2.83;;
11839;SDS011;5979;50.800;4.904;2022-11-06T04:14:25;5.70;;;2.75;;
11839;SDS011;5979;50.800;4.904;2022-11-06T04:16:56;6.05;;;2.83;;
11839;SDS011;5979;50.800;4.904;2022-11-06T04:19:24;5.40;;;2.78;;
11839;SDS011;5979;50.800;4.904;2022-11-06T04:24:47;4.22;;;2.70;;
11839;SDS011;5979;50.800;4.904;2022-11-06T04:30:54;4.65;;;2.55;;
11839;SDS011;5979;50.800;4.904;2022-11-06T04:33:31;3.22;;;2.75;;
11839;SDS011;5979;50.800;4.904;2022-11-06T04:36:07;3.15;;;2.85;;
11839;SDS011;5979;50.800;4.904;2022-11-06T04:38:46;3.83;;;2.33;;
11839;SDS011;5979;50.800;4.904;2022-11-06T04:43:53;3.97;;;2.58;;
11839;SDS011;5979;50.800;4.904;2022-11-06T04:46:29;2.25;;;2.13;;
11839;SDS011;5979;50.800;4.904;2022-11-06T04:49:00;3.38;;;2.67;;
11839;SDS011;5979;50.800;4.904;2022-11-06T04:51:30;3.65;;;2.70;;
11839;SDS011;5979;50.800;4.904;2022-11-06T04:53:59;2.95;;;2.65;;
11839;SDS011;5979;50.800;4.904;2022-11-06T04:56:27;3.03;;;2.70;;
11839;SDS011;5979;50.800;4.904;2022-11-06T04:58:54;3.10;;;2.65;;
11839;SDS011;5979;50.800;4.904;2022-11-06T05:01:20;4.07;;;2.72;;
11839;SDS011;5979;50.800;4.904;2022-11-06T05:03:45;5.10;;;2.47;;
11839;SDS011;5979;50.800;4.904;2022-11-06T05:06:11;2.58;;;2.35;;
11839;SDS011;5979;50.800;4.904;2022-11-06T05:08:37;3.20;;;2.42;;
11839;SDS011;5979;50.800;4.904;2022-11-06T05:11:03;4.22;;;2.45;;
11839;SDS011;5979;50.800;4.904;2022-11-06T05:13:28;3.65;;;2.40;;
11839;SDS011;5979;50.800;4.904;2022-11-06T05:15:58;6.10;;;2.60;;
11839;SDS011;5979;50.800;4.904;2022-11-06T05:18:24;3.15;;;2.72;;
11839;SDS011;5979;50.800;4.904;2022-11-06T05:20:50;3.30;;;2.63;;
11839;SDS011;5979;50.800;4.904;2022-11-06T05:23:36;4.20;;;2.67;;
11839;SDS011;5979;50.800;4.904;2022-11-06T05:26:03;8.77;;;3.30;;
11839;SDS011;5979;50.800;4.904;2022-11-06T05:28:29;2.47;;;2.30;;
11839;SDS011;5979;50.800;4.904;2022-11-06T05:30:55;6.25;;;2.88;;
11839;SDS011;5979;50.800;4.904;2022-11-06T05:33:20;2.95;;;2.35;;
11839;SDS011;5979;50.800;4.904;2022-11-06T05:35:46;7.55;;;2.63;;
11839;SDS011;5979;50.800;4.904;2022-11-06T05:38:11;3.55;;;2.50;;
11839;SDS011;5979;50.800;4.904;2022-11-06T05:40:37;4.78;;;2.42;;
11839;SDS011;5979;50.800;4.904;2022-11-06T05:43:03;5.97;;;2.30;;
11839;SDS011;5979;50.800;4.904;2022-11-06T05:45:28;3.38;;;2.47;;
11839;SDS011;5979;50.800;4.904;2022-11-06T05:47:54;3.17;;;2.88;;
11839;SDS011;5979;50.800;4.904;2022-11-06T05:50:20;4.15;;;2.65;;
11839;SDS011;5979;50.800;4.904;2022-11-06T05:52:45;2.42;;;2.10;;
11839;SDS011;5979;50.800;4.904;2022-11-06T05:55:11;5.38;;;2.70;;
11839;SDS011;5979;50.800;4.904;2022-11-06T05:57:37;8.27;;;2.60;;
11839;SDS011;5979;50.800;4.904;2022-11-06T06:00:03;5.65;;;2.70;;
11839;SDS011;5979;50.800;4.904;2022-11-06T06:02:30;4.05;;;2.75;;
11839;SDS011;5979;50.800;4.904;2022-11-06T06:04:55;4.65;;;2.35;;
11839;SDS011;5979;50.800;4.904;2022-11-06T06:07:21;3.42;;;2.50;;
11839;SDS011;5979;50.800;4.904;2022-11-06T06:09:47;3.78;;;2.40;;
11839;SDS011;5979;50.800;4.904;2022-11-06T06:12:13;4.32;;;2.35;;
11839;SDS011;5979;50.800;4.904;2022-11-06T06:14:38;3.05;;;2.33;;
11839;SDS011;5979;50.800;4.904;2022-11-06T06:17:04;5.38;;;2.35;;
11839;SDS011;5979;50.800;4.904;2022-11-06T06:19:30;3.13;;;2.40;;
11839;SDS011;5979;50.800;4.904;2022-11-06T06:21:56;4.55;;;2.28;;
11839;SDS011;5979;50.800;4.904;2022-11-06T06:24:21;4.65;;;2.47;;
11839;SDS011;5979;50.800;4.904;2022-11-06T06:26:47;3.55;;;1.92;;
11839;SDS011;5979;50.800;4.904;2022-11-06T06:29:13;2.50;;;2.30;;
11839;SDS011;5979;50.800;4.904;2022-11-06T06:31:38;4.32;;;2.17;;
11839;SDS011;5979;50.800;4.904;2022-11-06T06:34:04;2.60;;;2.40;;
11839;SDS011;5979;50.800;4.904;2022-11-06T06:36:30;5.95;;;2.42;;
11839;SDS011;5979;50.800;4.904;2022-11-06T06:38:56;4.03;;;2.33;;
11839;SDS011;5979;50.800;4.904;2022-11-06T06:41:21;3.88;;;2.30;;
11839;SDS011;5979;50.800;4.904;2022-11-06T06:43:47;4.72;;;2.30;;
11839;SDS011;5979;50.800;4.904;2022-11-06T06:46:13;2.42;;;2.22;;
11839;SDS011;5979;50.800;4.904;2022-11-06T06:48:39;6.18;;;2.50;;
11839;SDS011;5979;50.800;4.904;2022-11-06T06:51:05;3.28;;;2.05;;
11839;SDS011;5979;50.800;4.904;2022-11-06T06:53:32;2.35;;;2.15;;
11839;SDS011;5979;50.800;4.904;2022-11-06T06:55:59;3.72;;;2.22;;
11839;SDS011;5979;50.800;4.904;2022-11-06T06:58:26;2.92;;;2.00;;
11839;SDS011;5979;50.800;4.904;2022-11-06T07:00:52;4.35;;;2.53;;
11839;SDS011;5979;50.800;4.904;2022-11-06T07:03:19;4.32;;;2.38;;
11839;SDS011;5979;50.800;4.904;2022-11-06T07:05:44;4.10;;;2.28;;
11839;SDS011;5979;50.800;4.904;2022-11-06T07:08:11;3.78;;;2.20;;
11839;SDS011;5979;50.800;4.904;2022-11-06T07:10:36;3.15;;;2.28;;
11839;SDS011;5979;50.800;4.904;2022-11-06T07:13:02;3.13;;;2.00;;
11839;SDS011;5979;50.800;4.904;2022-11-06T07:15:29;4.88;;;2.47;;
11839;SDS011;5979;50.800;4.904;2022-11-06T07:18:00;3.08;;;2.15;;
11839;SDS011;5979;50.800;4.904;2022-11-06T07:20:26;3.95;;;2.50;;
11839;SDS011;5979;50.800;4.904;2022-11-06T07:22:52;4.07;;;2.08;;
11839;SDS011;5979;50.800;4.904;2022-11-06T07:25:18;4.53;;;2.20;;
11839;SDS011;5979;50.800;4.904;2022-11-06T07:27:43;4.15;;;2.00;;
11839;SDS011;5979;50.800;4.904;2022-11-06T07:30:09;2.75;;;2.40;;
11839;SDS011;5979;50.800;4.904;2022-11-06T07:32:35;5.10;;;2.15;;
11839;SDS011;5979;50.800;4.904;2022-11-06T07:35:01;3.58;;;2.00;;
11839;SDS011;5979;50.800;4.904;2022-11-06T07:37:27;2.45;;;2.25;;
11839;SDS011;5979;50.800;4.904;2022-11-06T07:39:52;2.55;;;1.88;;
11839;SDS011;5979;50.800;4.904;2022-11-06T07:42:18;3.83;;;2.03;;
11839;SDS011;5979;50.800;4.904;2022-11-06T07:44:44;5.28;;;2.35;;
11839;SDS011;5979;50.800;4.904;2022-11-06T07:47:09;3.30;;;2.05;;
11839;SDS011;5979;50.800;4.904;2022-11-06T07:49:35;2.85;;;1.92;;
11839;SDS011;5979;50.800;4.904;2022-11-06T07:52:01;5.70;;;2.38;;
11839;SDS011;5979;50.800;4.904;2022-11-06T07:54:28;5.60;;;1.90;;
11839;SDS011;5979;50.800;4.904;2022-11-06T07:56:53;4.90;;;2.22;;
11839;SDS011;5979;50.800;4.904;2022-11-06T07:59:19;5.80;;;2.35;;
11839;SDS011;5979;50.800;4.904;2022-11-06T08:01:45;2.70;;;1.92;;
11839;SDS011;5979;50.800;4.904;2022-11-06T08:04:10;3.33;;;2.30;;
11839;SDS011;5979;50.800;4.904;2022-11-06T08:06:36;2.22;;;2.00;;
11839;SDS011;5979;50.800;4.904;2022-11-06T08:09:05;2.70;;;2.10;;
11839;SDS011;5979;50.800;4.904;2022-11-06T08:11:32;4.63;;;2.22;;
11839;SDS011;5979;50.800;4.904;2022-11-06T08:14:00;3.83;;;2.25;;
11839;SDS011;5979;50.800;4.904;2022-11-06T08:16:26;2.40;;;2.20;;
11839;SDS011;5979;50.800;4.904;2022-11-06T08:18:52;3.10;;;2.28;;
11839;SDS011;5979;50.800;4.904;2022-11-06T08:21:18;4.38;;;2.05;;
11839;SDS011;5979;50.800;4.904;2022-11-06T08:23:43;4.43;;;2.25;;
11839;SDS011;5979;50.800;4.904;2022-11-06T08:26:09;4.30;;;2.00;;
11839;SDS011;5979;50.800;4.904;2022-11-06T08:28:35;4.32;;;2.08;;
11839;SDS011;5979;50.800;4.904;2022-11-06T08:31:02;4.35;;;1.85;;
11839;SDS011;5979;50.800;4.904;2022-11-06T08:33:32;6.18;;;2.15;;
11839;SDS011;5979;50.800;4.904;2022-11-06T08:36:00;4.45;;;2.25;;
11839;SDS011;5979;50.800;4.904;2022-11-06T08:38:26;3.42;;;2.03;;
11839;SDS011;5979;50.800;4.904;2022-11-06T08:40:52;5.03;;;2.38;;
11839;SDS011;5979;50.800;4.904;2022-11-06T08:43:17;3.42;;;2.25;;
11839;SDS011;5979;50.800;4.904;2022-11-06T08:45:43;4.43;;;2.20;;
11839;SDS011;5979;50.800;4.904;2022-11-06T08:48:09;2.78;;;2.33;;
11839;SDS011;5979;50.800;4.904;2022-11-06T08:50:35;2.20;;;2.00;;
11839;SDS011;5979;50.800;4.904;2022-11-06T08:53:02;4.60;;;1.95;;
11839;SDS011;5979;50.800;4.904;2022-11-06T08:55:30;5.60;;;2.30;;
11839;SDS011;5979;50.800;4.904;2022-11-06T08:57:57;5.80;;;2.30;;
11839;SDS011;5979;50.800;4.904;2022-11-06T09:00:23;4.15;;;2.30;;
11839;SDS011;5979;50.800;4.904;2022-11-06T09:02:49;5.07;;;2.10;;
11839;SDS011;5979;50.800;4.904;2022-11-06T09:05:14;3.88;;;2.40;;
11839;SDS011;5979;50.800;4.904;2022-11-06T09:07:40;3.15;;;1.80;;
11839;SDS011;5979;50.800;4.904;2022-11-06T09:10:06;3.25;;;2.05;;
11839;SDS011;5979;50.800;4.904;2022-11-06T09:12:32;2.20;;;2.00;;
11839;SDS011;5979;50.800;4.904;2022-11-06T09:14:57;3.20;;;2.25;;
11839;SDS011;5979;50.800;4.904;2022-11-06T09:17:24;4.40;;;2.55;;
11839;SDS011;5979;50.800;4.904;2022-11-06T09:19:50;2.55;;;2.00;;
11839;SDS011;5979;50.800;4.904;2022-11-06T09:22:16;3.08;;;2.13;;
11839;SDS011;5979;50.800;4.904;2022-11-06T09:24:42;3.22;;;2.10;;
11839;SDS011;5979;50.800;4.904;2022-11-06T09:27:07;2.85;;;2.38;;
11839;SDS011;5979;50.800;4.904;2022-11-06T09:29:33;2.55;;;1.95;;
11839;SDS011;5979;50.800;4.904;2022-11-06T09:31:59;2.03;;;1.88;;
11839;SDS011;5979;50.800;4.904;2022-11-06T09:34:25;3.72;;;1.73;;
11839;SDS011;5979;50.800;4.904;2022-11-06T09:36:50;3.38;;;1.98;;
11839;SDS011;5979;50.800;4.904;2022-11-06T09:39:16;5.10;;;2.35;;
11839;SDS011;5979;50.800;4.904;2022-11-06T09:41:46;6.68;;;2.40;;
11839;SDS011;5979;50.800;4.904;2022-11-06T09:47:08;4.22;;;2.25;;
11839;SDS011;5979;50.800;4.904;2022-11-06T09:49:45;4.90;;;2.15;;
11839;SDS011;5979;50.800;4.904;2022-11-06T09:55:15;4.28;;;2.28;;
11839;SDS011;5979;50.800;4.904;2022-11-06T09:58:10;5.78;;;2.20;;
11839;SDS011;5979;50.800;4.904;2022-11-06T10:00:38;4.97;;;2.33;;
11839;SDS011;5979;50.800;4.904;2022-11-06T10:03:05;6.30;;;2.13;;
11839;SDS011;5979;50.800;4.904;2022-11-06T10:05:40;6.57;;;2.33;;
11839;SDS011;5979;50.800;4.904;2022-11-06T10:08:18;10.57;;;2.88;;
11839;SDS011;5979;50.800;4.904;2022-11-06T10:27:03;4.10;;;2.38;;
11839;SDS011;5979;50.800;4.904;2022-11-06T10:29:50;3.70;;;1.90;;
11839;SDS011;5979;50.800;4.904;2022-11-06T10:35:12;3.75;;;1.88;;
11839;SDS011;5979;50.800;4.904;2022-11-06T10:37:41;4.25;;;2.05;;
11839;SDS011;5979;50.800;4.904;2022-11-06T10:40:16;2.22;;;1.52;;
11839;SDS011;5979;50.800;4.904;2022-11-06T10:42:47;4.85;;;1.90;;
11839;SDS011;5979;50.800;4.904;2022-11-06T10:45:36;2.80;;;1.77;;
11839;SDS011;5979;50.800;4.904;2022-11-06T10:48:18;3.03;;;1.92;;
11839;SDS011;5979;50.800;4.904;2022-11-06T10:53:54;3.40;;;1.65;;
11839;SDS011;5979;50.800;4.904;2022-11-06T10:56:57;2.22;;;1.38;;
11839;SDS011;5979;50.800;4.904;2022-11-06T10:59:35;4.22;;;1.90;;
11839;SDS011;5979;50.800;4.904;2022-11-06T11:02:01;2.05;;;1.60;;
11839;SDS011;5979;50.800;4.904;2022-11-06T11:04:29;3.67;;;2.03;;
11839;SDS011;5979;50.800;4.904;2022-11-06T11:06:56;2.67;;;1.60;;
11839;SDS011;5979;50.800;4.904;2022-11-06T11:09:31;2.53;;;1.50;;
11839;SDS011;5979;50.800;4.904;2022-11-06T11:11:57;3.80;;;1.65;;
11839;SDS011;5979;50.800;4.904;2022-11-06T11:14:28;2.42;;;1.42;;
11839;SDS011;5979;50.800;4.904;2022-11-06T11:16:58;3.35;;;1.73;;
11839;SDS011;5979;50.800;4.904;2022-11-06T11:21:57;2.13;;;1.48;;
11839;SDS011;5979;50.800;4.904;2022-11-06T11:24:25;2.40;;;1.52;;
11839;SDS011;5979;50.800;4.904;2022-11-06T11:27:01;3.90;;;1.88;;
11839;SDS011;5979;50.800;4.904;2022-11-06T11:29:43;2.50;;;1.75;;
11839;SDS011;5979;50.800;4.904;2022-11-06T11:32:15;3.33;;;1.50;;
11839;SDS011;5979;50.800;4.904;2022-11-06T11:34:48;4.55;;;1.77;;
11839;SDS011;5979;50.800;4.904;2022-11-06T11:37:32;3.78;;;1.70;;
11839;SDS011;5979;50.800;4.904;2022-11-06T11:40:27;5.75;;;1.70;;
11839;SDS011;5979;50.800;4.904;2022-11-06T11:43:14;1.92;;;1.52;;
11839;SDS011;5979;50.800;4.904;2022-11-06T11:46:01;1.52;;;1.42;;
11839;SDS011;5979;50.800;4.904;2022-11-06T11:48:28;1.88;;;1.50;;
11839;SDS011;5979;50.800;4.904;2022-11-06T11:51:10;2.80;;;1.60;;
11839;SDS011;5979;50.800;4.904;2022-11-06T11:53:38;4.03;;;2.03;;
11839;SDS011;5979;50.800;4.904;2022-11-06T11:56:04;2.10;;;1.42;;
11839;SDS011;5979;50.800;4.904;2022-11-06T11:58:37;4.85;;;1.73;;
11839;SDS011;5979;50.800;4.904;2022-11-06T12:01:03;3.90;;;1.77;;
11839;SDS011;5979;50.800;4.904;2022-11-06T12:03:33;5.07;;;1.92;;
11839;SDS011;5979;50.800;4.904;2022-11-06T12:06:11;6.35;;;1.50;;
11839;SDS011;5979;50.800;4.904;2022-11-06T12:08:40;1.60;;;1.38;;
11839;SDS011;5979;50.800;4.904;2022-11-06T12:11:12;3.70;;;1.77;;
11839;SDS011;5979;50.800;4.904;2022-11-06T12:13:43;2.60;;;1.70;;
11839;SDS011;5979;50.800;4.904;2022-11-06T12:16:13;4.03;;;1.80;;
11839;SDS011;5979;50.800;4.904;2022-11-06T12:18:47;5.05;;;1.77;;
11839;SDS011;5979;50.800;4.904;2022-11-06T12:23:55;1.95;;;1.60;;
11839;SDS011;5979;50.800;4.904;2022-11-06T12:29:11;4.30;;;1.77;;
11839;SDS011;5979;50.800;4.904;2022-11-06T12:31:41;3.00;;;1.40;;
11839;SDS011;5979;50.800;4.904;2022-11-06T12:34:20;3.85;;;1.45;;
11839;SDS011;5979;50.800;4.904;2022-11-06T12:37:08;2.95;;;1.50;;
11839;SDS011;5979;50.800;4.904;2022-11-06T12:39:41;1.92;;;1.55;;
11839;SDS011;5979;50.800;4.904;2022-11-06T12:42:16;2.67;;;1.92;;
11839;SDS011;5979;50.800;4.904;2022-11-06T12:44:45;1.70;;;1.48;;
11839;SDS011;5979;50.800;4.904;2022-11-06T12:55:30;2.17;;;1.35;;
11839;SDS011;5979;50.800;4.904;2022-11-06T13:09:44;4.20;;;1.58;;
11839;SDS011;5979;50.800;4.904;2022-11-06T13:12:23;2.33;;;1.60;;
11839;SDS011;5979;50.800;4.904;2022-11-06T13:17:41;2.97;;;1.45;;
11839;SDS011;5979;50.800;4.904;2022-11-06T13:20:37;2.35;;;1.58;;
11839;SDS011;5979;50.800;4.904;2022-11-06T13:25:42;2.35;;;1.67;;
11839;SDS011;5979;50.800;4.904;2022-11-06T13:28:48;2.85;;;1.95;;
11839;SDS011;5979;50.800;4.904;2022-11-06T13:31:20;2.67;;;2.08;;
11839;SDS011;5979;50.800;4.904;2022-11-06T13:33:51;1.48;;;1.38;;
11839;SDS011;5979;50.800;4.904;2022-11-06T13:36:21;1.75;;;1.63;;
11839;SDS011;5979;50.800;4.904;2022-11-06T13:38:49;2.70;;;1.70;;
11839;SDS011;5979;50.800;4.904;2022-11-06T13:41:29;1.60;;;1.50;;
11839;SDS011;5979;50.800;4.904;2022-11-06T13:43:57;2.55;;;1.67;;
11839;SDS011;5979;50.800;4.904;2022-11-06T13:46:38;1.90;;;1.42;;
11839;SDS011;5979;50.800;4.904;2022-11-06T13:49:33;2.47;;;1.73;;
11839;SDS011;5979;50.800;4.904;2022-11-06T13:52:33;1.98;;;1.60;;
11839;SDS011;5979;50.800;4.904;2022-11-06T13:55:18;2.70;;;1.70;;
11839;SDS011;5979;50.800;4.904;2022-11-06T14:04:06;1.70;;;1.60;;
11839;SDS011;5979;50.800;4.904;2022-11-06T14:06:53;2.70;;;1.50;;
11839;SDS011;5979;50.800;4.904;2022-11-06T14:09:22;2.42;;;1.52;;
11839;SDS011;5979;50.800;4.904;2022-11-06T14:11:51;2.65;;;1.70;;
11839;SDS011;5979;50.800;4.904;2022-11-06T14:14:26;5.15;;;1.58;;
11839;SDS011;5979;50.800;4.904;2022-11-06T14:17:27;1.77;;;1.67;;
11839;SDS011;5979;50.800;4.904;2022-11-06T14:22:24;1.65;;;1.55;;
11839;SDS011;5979;50.800;4.904;2022-11-06T14:24:57;2.60;;;1.60;;
11839;SDS011;5979;50.800;4.904;2022-11-06T14:30:03;2.05;;;1.83;;
11839;SDS011;5979;50.800;4.904;2022-11-06T14:32:33;1.88;;;1.50;;
11839;SDS011;5979;50.800;4.904;2022-11-06T14:40:33;3.92;;;1.67;;
11839;SDS011;5979;50.800;4.904;2022-11-06T14:43:00;1.83;;;1.70;;
11839;SDS011;5979;50.800;4.904;2022-11-06T14:45:51;1.92;;;1.42;;
11839;SDS011;5979;50.800;4.904;2022-11-06T14:48:34;2.08;;;1.55;;
11839;SDS011;5979;50.800;4.904;2022-11-06T14:51:04;3.40;;;1.63;;
11839;SDS011;5979;50.800;4.904;2022-11-06T14:56:08;2.25;;;1.58;;
11839;SDS011;5979;50.800;4.904;2022-11-06T14:58:39;2.75;;;1.70;;
11839;SDS011;5979;50.800;4.904;2022-11-06T15:01:13;2.33;;;1.65;;
11839;SDS011;5979;50.800;4.904;2022-11-06T15:11:57;1.95;;;1.73;;
11839;SDS011;5979;50.800;4.904;2022-11-06T15:16:47;2.28;;;1.63;;
11839;SDS011;5979;50.800;4.904;2022-11-06T15:19:15;2.30;;;2.00;;
11839;SDS011;5979;50.800;4.904;2022-11-06T15:21:55;1.67;;;1.58;;
11839;SDS011;5979;50.800;4.904;2022-11-06T15:24:28;1.55;;;1.50;;
11839;SDS011;5979;50.800;4.904;2022-11-06T15:27:10;1.67;;;1.45;;
11839;SDS011;5979;50.800;4.904;2022-11-06T15:29:39;2.65;;;2.13;;
11839;SDS011;5979;50.800;4.904;2022-11-06T15:35:04;3.10;;;1.70;;
11839;SDS011;5979;50.800;4.904;2022-11-06T15:37:55;2.28;;;1.63;;
11839;SDS011;5979;50.800;4.904;2022-11-06T15:40:33;1.83;;;1.73;;
11839;SDS011;5979;50.800;4.904;2022-11-06T15:43:01;2.03;;;1.80;;
11839;SDS011;5979;50.800;4.904;2022-11-06T15:45:31;3.70;;;1.85;;
11839;SDS011;5979;50.800;4.904;2022-11-06T15:47:58;3.22;;;1.60;;
11839;SDS011;5979;50.800;4.904;2022-11-06T15:52:52;6.03;;;1.80;;
11839;SDS011;5979;50.800;4.904;2022-11-06T15:57:52;1.70;;;1.60;;
11839;SDS011;5979;50.800;4.904;2022-11-06T16:00:23;1.70;;;1.60;;
11839;SDS011;5979;50.800;4.904;2022-11-06T16:02:50;1.98;;;1.77;;
11839;SDS011;5979;50.800;4.904;2022-11-06T16:05:17;2.15;;;1.63;;
11839;SDS011;5979;50.800;4.904;2022-11-06T16:07:44;3.00;;;1.70;;
11839;SDS011;5979;50.800;4.904;2022-11-06T16:10:15;1.60;;;1.50;;
11839;SDS011;5979;50.800;4.904;2022-11-06T16:12:42;3.08;;;1.50;;
11839;SDS011;5979;50.800;4.904;2022-11-06T16:24:08;2.20;;;1.83;;
11839;SDS011;5979;50.800;4.904;2022-11-06T16:28:59;2.05;;;1.95;;
11839;SDS011;5979;50.800;4.904;2022-11-06T16:31:40;3.10;;;1.98;;
11839;SDS011;5979;50.800;4.904;2022-11-06T16:34:16;1.98;;;1.88;;
11839;SDS011;5979;50.800;4.904;2022-11-06T16:36:58;1.92;;;1.83;;
11839;SDS011;5979;50.800;4.904;2022-11-06T16:41:58;2.20;;;2.10;;
11839;SDS011;5979;50.800;4.904;2022-11-06T16:44:43;2.20;;;2.00;;
11839;SDS011;5979;50.800;4.904;2022-11-06T16:47:17;2.10;;;2.00;;
11839;SDS011;5979;50.800;4.904;2022-11-06T16:52:16;2.33;;;2.20;;
11839;SDS011;5979;50.800;4.904;2022-11-06T16:54:49;4.22;;;2.30;;
11839;SDS011;5979;50.800;4.904;2022-11-06T16:57:21;2.03;;;1.92;;
11839;SDS011;5979;50.800;4.904;2022-11-06T17:00:32;2.47;;;2.28;;
11839;SDS011;5979;50.800;4.904;2022-11-06T17:05:22;2.78;;;2.40;;
11839;SDS011;5979;50.800;4.904;2022-11-06T17:08:20;2.72;;;2.10;;
11839;SDS011;5979;50.800;4.904;2022-11-06T17:10:48;2.30;;;2.13;;
11839;SDS011;5979;50.800;4.904;2022-11-06T17:13:44;2.15;;;2.05;;
11839;SDS011;5979;50.800;4.904;2022-11-06T17:16:17;3.45;;;2.30;;
11839;SDS011;5979;50.800;4.904;2022-11-06T17:18:45;3.65;;;2.67;;
11839;SDS011;5979;50.800;4.904;2022-11-06T17:24:03;2.30;;;2.10;;
11839;SDS011;5979;50.800;4.904;2022-11-06T17:26:29;2.70;;;2.50;;
11839;SDS011;5979;50.800;4.904;2022-11-06T17:28:57;2.72;;;2.53;;
11839;SDS011;5979;50.800;4.904;2022-11-06T17:31:24;3.03;;;2.30;;
11839;SDS011;5979;50.800;4.904;2022-11-06T17:33:50;2.75;;;2.55;;
11839;SDS011;5979;50.800;4.904;2022-11-06T17:36:17;2.60;;;2.50;;
11839;SDS011;5979;50.800;4.904;2022-11-06T17:38:51;2.70;;;2.33;;
11839;SDS011;5979;50.800;4.904;2022-11-06T17:41:18;4.43;;;2.72;;
11839;SDS011;5979;50.800;4.904;2022-11-06T17:44:11;2.80;;;2.60;;
11839;SDS011;5979;50.800;4.904;2022-11-06T17:46:41;2.63;;;2.42;;
11839;SDS011;5979;50.800;4.904;2022-11-06T17:49:08;2.90;;;2.70;;
11839;SDS011;5979;50.800;4.904;2022-11-06T17:51:35;4.95;;;2.78;;
11839;SDS011;5979;50.800;4.904;2022-11-06T17:54:25;3.97;;;3.03;;
11839;SDS011;5979;50.800;4.904;2022-11-06T17:56:58;2.78;;;2.55;;
11839;SDS011;5979;50.800;4.904;2022-11-06T17:59:26;2.92;;;2.67;;